MSC Aniello — 3FYW9 — position and weather

sailwx.info

Track history (hours):
 
Tides and Currents Weather Stations Pressure Air Temp Water Temp Dewpoint Dewpoint Depression Visibility Wind Speed Wind Dir Waves Ship Positions

MSC Aniello

Last reported at 2018-Jan-21 06:06 UTC. Time now 2018-Jan-21 22:49 UTC.
Position N 26°58' W 095°00'.

Length 259 m; draft 7.6 m.

Type: Ship (hazmat cat A). MMSI: 357506000.

Date/timePositionNaut miles runAvg speedWind from/ knotsBaromVisibWave heightAir tempDewpointWater temp
2018-Jan-21 06:06N 26°58' W 095°00'214.7
2018-Jan-21 06:00N 26°59' W 094°59'14414.2
2018-Jan-20 19:51N 29°23' W 094°49'514.9
2018-Jan-20 19:30N 29°28' W 094°51'714.2
2018-Jan-20 19:00N 29°34' W 094°55'4 8.9
2018-Jan-20 18:30N 29°37' W 094°59'1 2.7
2018-Jan-20 18:00N 29°37' W 095°00'0 0.0
2018-Jan-20 17:27N 29°37' W 095°00'0 0.0
2018-Jan-20 17:00N 29°37' W 095°00'0 0.0
2018-Jan-20 16:30N 29°37' W 095°00'0 0.0
2018-Jan-20 16:00N 29°37' W 095°00'0 0.0
2018-Jan-20 15:30N 29°37' W 095°00'0 0.0
2018-Jan-20 15:00N 29°37' W 095°00'0 0.0
2018-Jan-20 14:30N 29°37' W 095°00'0 0.0
2018-Jan-20 14:00N 29°37' W 095°00'0 0.0
2018-Jan-20 13:30N 29°37' W 095°00'0 0.0
2018-Jan-20 13:00N 29°37' W 095°00'0 0.0
2018-Jan-20 12:30N 29°37' W 095°00'0 0.0
2018-Jan-20 12:00N 29°37' W 095°00'0 0.0
2018-Jan-20 11:30N 29°37' W 095°00'0 0.0
2018-Jan-20 11:00N 29°37' W 095°00'0 0.0
2018-Jan-20 10:27N 29°37' W 095°00'0 0.0
2018-Jan-20 10:00N 29°37' W 095°00'0 0.0
2018-Jan-20 09:30N 29°37' W 095°00'0 0.0
2018-Jan-20 09:00N 29°37' W 095°00'0 0.0
2018-Jan-20 08:30N 29°37' W 095°00'0 0.0
2018-Jan-20 08:00N 29°37' W 095°00'0 0.0
2018-Jan-20 07:27N 29°37' W 095°00'0 0.0
2018-Jan-20 07:00N 29°37' W 095°00'0 0.0
2018-Jan-20 06:30N 29°37' W 095°00'0 0.0
2018-Jan-20 06:00N 29°37' W 095°00'0 0.0
2018-Jan-20 05:30N 29°37' W 095°00'0 0.0
2018-Jan-20 05:00N 29°37' W 095°00'0 0.0
2018-Jan-20 04:30N 29°37' W 095°00'0 0.0
2018-Jan-20 04:00N 29°37' W 095°00'0 0.0
2018-Jan-20 03:30N 29°37' W 095°00'0 0.0
2018-Jan-20 03:00N 29°37' W 095°00'0 0.0
2018-Jan-20 02:30N 29°37' W 095°00'0 0.0
2018-Jan-20 01:57N 29°37' W 095°00'0 0.0
2018-Jan-20 01:30N 29°37' W 095°00'0 0.0
2018-Jan-20 01:00N 29°37' W 095°00'0 0.0
2018-Jan-20 00:30N 29°37' W 095°00'0 0.0
2018-Jan-20 00:00N 29°37' W 095°00'0 0.0
2018-Jan-19 23:30N 29°37' W 095°00'0 0.0
2018-Jan-19 23:00N 29°37' W 095°00'1 1.8
2018-Jan-19 22:31N 29°37' W 095°01'2 4.0
2018-Jan-19 22:00N 29°37' W 094°59'4 8.4
2018-Jan-19 21:30N 29°34' W 094°55'714.1
2018-Jan-19 21:00N 29°28' W 094°51'714.6
2018-Jan-19 20:30N 29°21' W 094°47'9312.8
2018-Jan-19 13:12N 28°29' W 093°19'  
Track history (hours):
 
Tides and Currents Weather Stations Pressure Air Temp Water Temp Dewpoint Dewpoint Depression Visibility Wind Speed Wind Dir Waves Ship Positions

MSC Aniello

Last reported at 2018-Jan-21 06:06 UTC. Time now 2018-Jan-21 22:49 UTC.
Position N 26°58' W 095°00'.

Length 259 m; draft 7.6 m.

Type: Ship (hazmat cat A). MMSI: 357506000.

Date/timePositionNaut miles runAvg speedWind from/ knotsBaromVisibWave heightAir tempDewpointWater temp
2018-Jan-21 06:06N 26°58' W 095°00'214.7
2018-Jan-21 06:00N 26°59' W 094°59'14414.2
2018-Jan-20 19:51N 29°23' W 094°49'514.9
2018-Jan-20 19:30N 29°28' W 094°51'714.2
2018-Jan-20 19:00N 29°34' W 094°55'4 8.9
2018-Jan-20 18:30N 29°37' W 094°59'1 2.7
2018-Jan-20 18:00N 29°37' W 095°00'0 0.0
2018-Jan-20 17:27N 29°37' W 095°00'0 0.0
2018-Jan-20 17:00N 29°37' W 095°00'0 0.0
2018-Jan-20 16:30N 29°37' W 095°00'0 0.0
2018-Jan-20 16:00N 29°37' W 095°00'0 0.0
2018-Jan-20 15:30N 29°37' W 095°00'0 0.0
2018-Jan-20 15:00N 29°37' W 095°00'0 0.0
2018-Jan-20 14:30N 29°37' W 095°00'0 0.0
2018-Jan-20 14:00N 29°37' W 095°00'0 0.0
2018-Jan-20 13:30N 29°37' W 095°00'0 0.0
2018-Jan-20 13:00N 29°37' W 095°00'0 0.0
2018-Jan-20 12:30N 29°37' W 095°00'0 0.0
2018-Jan-20 12:00N 29°37' W 095°00'0 0.0
2018-Jan-20 11:30N 29°37' W 095°00'0 0.0
2018-Jan-20 11:00N 29°37' W 095°00'0 0.0
2018-Jan-20 10:27N 29°37' W 095°00'0 0.0
2018-Jan-20 10:00N 29°37' W 095°00'0 0.0
2018-Jan-20 09:30N 29°37' W 095°00'0 0.0
2018-Jan-20 09:00N 29°37' W 095°00'0 0.0
2018-Jan-20 08:30N 29°37' W 095°00'0 0.0
2018-Jan-20 08:00N 29°37' W 095°00'0 0.0
2018-Jan-20 07:27N 29°37' W 095°00'0 0.0
2018-Jan-20 07:00N 29°37' W 095°00'0 0.0
2018-Jan-20 06:30N 29°37' W 095°00'0 0.0
2018-Jan-20 06:00N 29°37' W 095°00'0 0.0
2018-Jan-20 05:30N 29°37' W 095°00'0 0.0
2018-Jan-20 05:00N 29°37' W 095°00'0 0.0
2018-Jan-20 04:30N 29°37' W 095°00'0 0.0
2018-Jan-20 04:00N 29°37' W 095°00'0 0.0
2018-Jan-20 03:30N 29°37' W 095°00'0 0.0
2018-Jan-20 03:00N 29°37' W 095°00'0 0.0
2018-Jan-20 02:30N 29°37' W 095°00'0 0.0
2018-Jan-20 01:57N 29°37' W 095°00'0 0.0
2018-Jan-20 01:30N 29°37' W 095°00'0 0.0
2018-Jan-20 01:00N 29°37' W 095°00'0 0.0
2018-Jan-20 00:30N 29°37' W 095°00'0 0.0
2018-Jan-20 00:00N 29°37' W 095°00'0 0.0
2018-Jan-19 23:30N 29°37' W 095°00'0 0.0
2018-Jan-19 23:00N 29°37' W 095°00'1 1.8
2018-Jan-19 22:31N 29°37' W 095°01'2 4.0
2018-Jan-19 22:00N 29°37' W 094°59'4 8.4
2018-Jan-19 21:30N 29°34' W 094°55'714.1
2018-Jan-19 21:00N 29°28' W 094°51'714.6
2018-Jan-19 20:30N 29°21' W 094°47'9312.8
2018-Jan-19 13:12N 28°29' W 093°19'  

Dump ship's entire track history